createdAt,value
2023-02-26T07:49:12.589Z,100.00
2023-02-26T07:51:48.180Z,100.00
2023-02-26T07:54:17.431Z,100.00
2023-02-26T07:56:49.385Z,100.00
2023-02-26T07:59:21.324Z,100.00
2023-02-26T08:01:52.743Z,100.00
2023-02-26T08:04:26.793Z,100.00
2023-02-26T08:06:59.118Z,100.00
2023-02-26T08:33:15.354Z,100.00
2023-02-26T08:49:25.156Z,100.00
2023-02-26T08:51:54.924Z,100.00
2023-02-26T09:48:13.791Z,100.00
2023-02-26T09:51:48.617Z,100.00
2023-02-26T09:54:55.220Z,100.00
2023-02-26T09:57:33.057Z,100.00
2023-02-26T10:00:05.436Z,100.00
2023-02-26T10:02:56.548Z,99.86
2023-02-26T10:06:14.232Z,100.00
2023-02-26T10:09:17.706Z,100.00
2023-02-26T10:12:00.055Z,99.75
2023-02-26T10:14:41.727Z,98.09
2023-02-26T10:17:22.042Z,97.28
2023-02-26T10:25:07.358Z,100.00
2023-02-26T10:27:53.601Z,99.23
2023-02-26T10:30:43.120Z,96.11
2023-02-26T10:33:40.697Z,92.56
2023-02-26T10:36:37.437Z,95.62
2023-02-26T10:39:28.754Z,95.30
2023-02-26T10:42:00.655Z,93.46
2023-02-26T10:44:49.319Z,91.00
2023-02-26T10:47:38.203Z,86.90
2023-02-26T10:59:40.407Z,90.01
2023-02-26T11:02:57.373Z,87.11
2023-02-26T11:06:06.350Z,88.04
2023-02-26T11:09:07.862Z,91.85
2023-02-26T11:12:01.131Z,92.22
2023-02-26T11:14:51.223Z,92.58
2023-02-26T11:17:42.352Z,93.76
2023-02-26T11:21:03.483Z,94.33
2023-02-26T11:24:03.784Z,94.31
2023-02-26T11:26:40.464Z,93.57
2023-02-26T11:29:57.722Z,94.38
2023-02-26T11:32:47.511Z,94.57
2023-02-26T11:35:30.181Z,92.86
2023-02-26T11:38:07.366Z,91.81
2023-02-26T11:40:54.566Z,90.81
2023-02-26T11:43:31.514Z,88.97
2023-02-26T11:46:16.875Z,90.75
2023-02-26T11:49:09.678Z,86.95
2023-02-26T11:52:26.045Z,84.76
2023-02-26T11:55:51.960Z,84.00
2023-02-26T11:58:29.549Z,80.25
2023-02-26T12:01:36.623Z,79.55
2023-02-26T12:04:27.701Z,81.35
2023-02-26T12:07:05.310Z,81.72
2023-02-26T12:09:48.873Z,82.52
2023-02-26T12:13:08.702Z,83.55
2023-02-26T12:16:03.930Z,78.35
2023-02-26T12:19:10.240Z,76.76
2023-02-26T12:22:53.900Z,76.14
2023-02-26T12:58:00.674Z,93.95
2023-02-26T13:01:04.937Z,96.41
2023-02-26T13:05:15.469Z,97.21
2023-02-26T13:07:36.614Z,95.82
2023-02-26T13:10:16.623Z,97.20
2023-02-26T13:13:01.383Z,93.91
2023-02-26T13:16:08.509Z,90.35
